CheckWX is a tool to help pilots better visualize weather data.  It is not intended as a substitute for an official pre-flight weather briefing.

06:54:05 UTC

KPIH TAF
Pocatello Regional Airport
Pocatello, Idaho, USA
KPIH 230525Z 2306/2406 02005KT P6SM FEW180 FM232200 22011KT P6SM SCT130 FM240000 20015G25KT P6SM VCSH SCT050 TEMPO 2403/2404 22025G35KT 3SM -RASN BKN030 FM240400 24020G30KT P6SM VCSH SCT050

Feb-23@
06:00 UTC

Feb-23 @ 06:00 UTC

Feb-23@
22:00 UTC

Feb-23 @ 22:00 UTC

KPIH 230525Z 2306/2406 02005KT P6SM FEW180
Wind
  • 020° at 5 KTS
Cloud Levels
  • Few at 18,000' AGL

Feb-23@
22:00 UTC

Feb-23 @ 22:00 UTC

Feb-24@
00:00 UTC

Feb-24 @ 00:00 UTC

FM232200 22011KT P6SM SCT130

From

From Standard forecast or significant change

Wind
  • 220° at 11 KTS
Cloud Levels
  • Scattered at 13,000' AGL

Feb-24@
00:00 UTC

Feb-24 @ 00:00 UTC

Feb-24@
04:00 UTC

Feb-24 @ 04:00 UTC

FM240000 20015G25KT P6SM VCSH SCT050

From

From Standard forecast or significant change

Wind
  • 200° at 15 KTS
  • {Gusting to 25 KTS
Cloud Levels
  • Scattered at 5,000' AGL

Feb-24@
03:00 UTC

Feb-24 @ 03:00 UTC

Feb-24@
04:00 UTC

Feb-24 @ 04:00 UTC

TEMPO 2403/2404 22025G35KT 3SM -RASN BKN030

Temporary

Temporary Changes expected for less than half the time period

Wind
  • 220° at 25 KTS
  • {Gusting to 35 KTS
Conditions
Light Rain, Light Snow
Cloud Levels
  • Broken at 3,000' AGL

Feb-24@
04:00 UTC

Feb-24 @ 04:00 UTC

Feb-24@
06:00 UTC

Feb-24 @ 06:00 UTC

FM240400 24020G30KT P6SM VCSH SCT050

From

From Standard forecast or significant change

Wind
  • 240° at 20 KTS
  • {Gusting to 30 KTS
Cloud Levels
  • Scattered at 5,000' AGL